EKYTEGLC

Guest
Details From EKYT - Aalborg
To EGLC - London City
Flight Number -
Tags Generated
Created
Modified
Stats Distance 479 nm / 887 km
Max Altitude 0 ft / 0 m
Waypoints 3
Social Downloads 1
Likes 0
Share VATSIM

Download

Looking for another format? Having issues loading an existing format? Contact us
Advertisement - Login to hide

Notes

Generated

Route

EKYT DET25 EGLC

ID Type Via Altitude Latitude Longitude Leg Dist Tot Dist Heading (true) Name
O EKYT APT - 0 ft / 0 m 57.09191˚ 9.83548˚ - 0 nm - -
DET25 FIX - 0 ft / 0 m 51.67454˚ 0.29315˚ 465 nm 465 nm 230° / 222° -
O EGLC APT - 0 ft / 0 m 51.50558˚ 0.04414˚ 13 nm 479 nm 223° / 222° -

Altitude Profile

Advertisement - Login to hide

Weather


0- 5 10 15 20 25 30 35+ Temperature / ° C

Clouds and Precipitation
Forecast for 2017-12-12 00:00 UTC. Updated 2 hours ago

Ground ~20,000 ft ~40,000 ft Winds

EKYT

Details ICAO EKYT (AAL)
Name Aalborg
Region Denmark / Faroe Islands
Timezone Europe/Copenhagen (UTC+1.0)
Stats Elevation 10 ft / 3 m (AMSL)
Location 57.094186° 9.855744°
Runways 2
Magnetic Variation 2.789° E

METAR

EKYT 112050Z 03010KT 3000 -SN FEW005 BKN013 01/01 Q0990 R08L/290095

Decode

TAF

TAF EKYT 112021Z 1121/1218 02010KT 9999 SCT020 BKN080 TEMPO 1121/1204 1200 -SN BKN005 BECMG 1200/1203 01012G25KT BECMG 1206/1209 33012KT

Decode

Departure Runways

ID Width Length Bearing (true) Bearing (mag) Surface Threshold Offset Overrun Length
08L 148 ft / 45 m 8,683 ft / 2,647 m 83.20° 80.41° Asphalt 0 ft / 0 m 896 ft / 273 m
08R 75 ft / 23 m 8,338 ft / 2,542 m 83.23° 80.44° Asphalt 0 ft / 0 m 492 ft / 150 m
26L 75 ft / 23 m 8,338 ft / 2,542 m 263.26° 260.47° Asphalt 0 ft / 0 m 492 ft / 150 m
26R 148 ft / 45 m 8,683 ft / 2,647 m 263.24° 260.45° Asphalt 0 ft / 0 m 728 ft / 222 m

EGLC

Details ICAO EGLC (LCY)
Name London City
Region United Kingdom
Timezone Europe/London (UTC+0.0)
Stats Elevation 19 ft / 6 m (AMSL)
Location 51.505231° 0.055175°
Runways 1
Magnetic Variation 0.385° W

METAR

EGLC 112050Z AUTO 30010KT 9999 NCD 02/M03 Q0995

Decode

TAF

Not found

Destination Runways

ID Width Length Bearing (true) Bearing (mag) Surface Threshold Offset Overrun Length
09 98 ft / 30 m 4,931 ft / 1,503 m 92.89° 93.28° Concrete 322 ft / 98 m 164 ft / 50 m
27 98 ft / 30 m 4,931 ft / 1,503 m 272.91° 273.30° Concrete 243 ft / 74 m 279 ft / 85 m

Approach Navaids

Runway Type Ident Frequency Range Bearing (true) Bearing (mag) Slope Elevation
09 Localiser ILST 111.15 MHz 18 nm / 33 km 92.91° 93.30° - 19 ft / 6 m (AMSL)
09 Glidescope ILST 111.15 MHz 10 nm / 19 km 92.90° 93.29° 5.05° 35 ft / 11 m (AMSL)
09 DME ILST 111.15 MHz 18 nm / 33 km - - - 48 ft / 15 m (AMSL)
27 Localiser ILSR 111.15 MHz 18 nm / 33 km 272.89° 273.28° - 19 ft / 6 m (AMSL)
27 Glidescope ILSR 111.15 MHz 10 nm / 19 km 272.90° 273.29° 5.50° 35 ft / 11 m (AMSL)
27 DME ILSR 111.15 MHz 18 nm / 33 km - - - 48 ft / 15 m (AMSL)